KTPL/TPL METAR and TAF weather

Enter ICAO airport designator
Station Type Date Time Source
KTPL METAR 2022/06/30 12:51 UTC NOAA

KTPL 301251Z 19005KT 10SM CLR 26/23 A3007 RMK AO2 SLP171 T02560228


Station Type Date Time Source
KTPL Decoded METAR 2022/06/30 12:51 UTC NOAA

Temple, Draughon-Miller Central Texas Regional Airport, TX, United States (KTPL) 31-09N 097-24W
Jun 30, 2022 - 08:51 AM EDT / 2022.06.30 1251 UTC
Wind: from the S (190 degrees) at 6 MPH (5 KT):0
Visibility: 10 mile(s):0
Sky conditions: clear
Temperature: 78.1 F (25.6 C)
Dew Point: 73.0 F (22.8 C)
Relative Humidity: 84%
Pressure (altimeter): 30.07 in. Hg (1018 hPa)
ob: KTPL 301251Z 19005KT 10SM CLR 26/23 A3007 RMK AO2 SLP171 T02560228
cycle: 13

Station Type Date Time Source
KTPL TAF UTC NOAA

Error!

Example: see airport list